Station: Port Pirie Airport Aws  

  Atmospheric Gas Attenuation - ITU Rec 676-11   ----------------- dB/100km -----------------
Date Time Temp RH % AH g/m3 Dew Point Wind Direction Speed kph Gust kph Barometer mB Rainfall Since 9am 24GHz 47GHz 76GHz 122GHz 134GHz 241GHz
08/05 12:00 18 52 7.99 8 26 41 1031.6 0 18.1 24.4 36.2 94.7 87.1 299.1
08/05 11:50 17.5 54 8.05 8.1 30 33 1031.8 0 18.2 24.7 36.7 95.9 88.4 303.7
08/05 11:40 17.5 54 8.05 8.1 15 19 1031.8 0 18.2 24.7 36.7 95.9 88.4 303.7
08/05 11:30 17.4 54 8 8 22 32 1032 0 18.1 24.6 36.6 95.6 87.9 301.9
08/05 11:20 17.4 57 8.45 8.8 22 26 1032.1 0 19.1 25.3 38.3 100.2 93.5 321.7
08/05 11:10 16.9 56 8.05 8.1 24 28 1032.1 0 18.3 24.8 37.0 96.7 89.1 306.0
08/05 11:00 17.4 59 8.74 9.3 24 35 1032.2 0 19.7 25.8 39.4 103.2 97.2 334.7
08/05 10:50 17.1 58 8.44 8.8 28 35 1032.1 0 19.1 25.4 38.4 100.4 93.8 322.5
08/05 10:40 16.8 59 8.43 8.8 20 24 1032.2 0 19.1 25.5 38.5 100.7 94.0 323.3
08/05 10:30 16.6 62 8.76 9.3 22 30 1032.3 0 19.8 26.0 39.9 104.4 98.5 339.0
08/05 10:20 16 62 8.45 8.7 17 22 1032.3 0 19.1 25.7 39.0 102.0 95.2 327.5
08/05 10:10 16.1 62 8.5 8.8 20 24 1032.3 0 19.2 25.8 39.1 102.4 95.8 329.4
08/05 10:00 15.9 64 8.67 9.1 22 30 1032.3 0 19.6 26.1 39.9 104.4 98.2 337.9
08/05 09:50 15.6 63 8.38 8.6 22 24 1032.3 0 19.0 25.7 38.9 101.7 94.8 326.0
08/05 09:40 15.6 64 8.51 8.8 20 24 1032.3 0 19.3 25.9 39.4 103.1 96.5 331.9
08/05 09:30 15.3 67 8.75 9.2 19 20 1032.2 0 19.8 26.4 40.5 106.0 100.0 344.1
08/05 09:20 15.2 68 8.83 9.3 17 19 1032.3 0 20.0 26.6 40.9 107.0 101.2 348.3
08/05 09:10 14.6 70 8.76 9.2 19 20 1032.3 0 19.9 26.6 40.9 107.1 101.1 347.7
08/05 09:00 14.3 74 9.09 9.7 13 17 1032.3 0 20.6 27.3 42.4 111.1 105.9 364.6
08/05 08:50 13.7 73 8.64 9 15 15 1032.3 0 19.7 26.7 40.9 107.0 100.6 346.1
08/05 08:40 13.4 76 8.84 9.3 11 13 1032.3 0 20.1 27.1 41.8 109.6 103.7 356.8
08/05 08:30 13.1 76 8.67 9 15 17 1032.2 0 19.8 26.9 41.3 108.2 101.8 350.1
08/05 08:20 12.7 78 8.68 9 13 15 1032.1 0 19.8 27.1 41.5 108.8 102.5 352.3
08/05 08:10 12.1 80 8.58 8.8 11 13 1032 0 19.6 27.1 41.4 108.5 101.9 350.2
08/05 08:00 11.8 80 8.42 8.5 13 15 1031.9 0 19.3 26.9 40.9 107.2 100.1 343.9
08/05 07:50 11.9 79 8.37 8.4 15 15 1031.8 0 19.2 26.8 40.7 106.5 99.3 341.0
08/05 07:40 11.7 79 8.26 8.2 17 19 1031.6 0 18.9 26.7 40.3 105.5 98.0 336.6
08/05 07:30 11.2 84 8.52 8.6 15 19 1031.6 0 19.5 27.2 41.6 109.1 102.2 351.3
08/05 07:20 9.8 87 8.07 7.7 15 15 1031.5 0 18.6 26.9 40.5 105.9 97.8 335.6
08/05 07:10 8.8 89 7.75 7.1 15 17 1031.4 0 18.0 26.7 39.6 103.7 94.6 324.3
08/05 07:00 7.6 90 7.25 6.1 11 13 1031.4 0 17.0 26.2 38.1 99.6 89.1 304.8
08/05 06:50 7.5 88 7.05 5.6 11 11 1031.4 0 16.5 25.9 37.3 97.5 86.4 295.5
08/05 06:40 7.9 88 7.23 6 9 11 1031.3 0 16.9 26.0 37.9 99.0 88.5 302.7
08/05 06:30 8 88 7.28 6.1 9 11 1031.3 0 17.0 26.1 38.0 99.4 89.0 304.7
08/05 06:20 8 89 7.36 6.3 7 7 1031.3 0 17.2 26.2 38.4 100.3 90.1 308.6
08/05 06:10 8.1 89 7.41 6.4 11 13 1031.3 0 17.3 26.3 38.5 100.7 90.7 310.6
08/05 06:00 8 88 7.28 6.1 11 13 1031.2 0 17.0 26.1 38.0 99.4 89.0 304.7
08/05 05:50 7.8 87 7.1 5.8 11 13 1031.1 0 16.6 25.8 37.4 97.6 86.8 296.7
08/05 05:40 7.9 86 7.07 5.7 13 15 1031.1 0 16.6 25.8 37.2 97.2 86.3 294.9
08/05 05:30 8 86 7.11 5.8 17 17 1031.1 0 16.7 25.8 37.3 97.5 86.7 296.5
08/05 05:20 8.6 84 7.22 6.1 17 19 1031.1 0 16.9 25.8 37.5 98.0 87.5 299.4
08/05 05:10 8.5 86 7.35 6.3 20 20 1031.2 0 17.1 26.1 38.1 99.5 89.4 306.1
08/05 05:00 8.5 85 7.26 6.1 17 20 1031.3 0 17.0 25.9 37.7 98.6 88.2 301.8
08/05 04:50 8.3 85 7.17 5.9 19 20 1031.2 0 16.8 25.8 37.4 97.8 87.2 298.2
08/05 04:40 8.6 84 7.22 6.1 19 20 1031.2 0 16.9 25.8 37.5 98.0 87.5 299.5
08/05 04:30 8.4 87 7.38 6.4 22 26 1031.2 0 17.2 26.1 38.3 100.0 89.9 307.9
08/05 04:20 7.6 88 7.09 5.7 20 24 1031.2 0 16.6 25.9 37.4 97.8 86.9 297.0
08/05 04:10 7.5 88 7.05 5.6 20 22 1031.3 0 16.5 25.9 37.3 97.5 86.4 295.5
08/05 04:00 7.3 91 7.19 5.9 15 20 1031.2 0 16.9 26.2 38.0 99.3 88.6 303.0
08/05 03:50 6.5 90 6.75 5 13 15 1031.2 0 15.9 25.6 36.5 95.4 83.4 284.7
08/05 03:40 6.1 89 6.51 4.4 13 13 1031.3 0 15.4 25.4 35.7 93.2 80.5 274.6
08/05 03:30 6.2 88 6.48 4.4 9 11 1031.3 0 15.4 25.3 35.5 92.7 80.0 272.8
08/05 03:20 6.5 89 6.68 4.8 9 9 1031.3 0 15.8 25.5 36.2 94.6 82.5 281.4
08/05 03:10 6.3 89 6.59 4.6 9 9 1031.3 0 15.6 25.4 36.0 93.8 81.4 277.8
08/05 03:00 6.3 89 6.59 4.6 9 11 1031.4 0 15.6 25.4 36.0 93.8 81.4 277.8
08/05 02:50 6.2 89 6.55 4.5 9 11 1031.4 0 15.5 25.4 35.8 93.5 81.0 276.2
08/05 02:40 6.2 89 6.55 4.5 9 9 1031.4 0 15.5 25.4 35.8 93.5 81.0 276.2
08/05 02:30 6.3 89 6.59 4.6 9 9 1031.4 0 15.6 25.4 36.0 93.8 81.4 277.8
08/05 02:20 6.3 89 6.59 4.6 9 9 1031.4 0 15.6 25.4 36.0 93.8 81.4 277.8
08/05 02:10 6.3 89 6.59 4.6 9 9 1031.4 0 15.6 25.4 36.0 93.8 81.4 277.8
08/05 02:00 6.4 89 6.64 4.7 11 13 1031.5 0 15.7 25.5 36.1 94.3 82.0 279.9
08/05 01:50 6.5 88 6.6 4.7 13 13 1031.5 0 15.6 25.4 35.9 93.7 81.4 277.6
08/05 01:40 6.5 87 6.53 4.5 11 11 1031.5 0 15.5 25.3 35.6 92.9 80.4 274.2
08/05 01:30 6.8 87 6.66 4.8 13 15 1031.5 0 15.7 25.4 36.0 94.0 81.9 279.4
08/05 01:20 7 88 6.82 5.2 15 15 1031.5 0 16.1 25.6 36.6 95.6 83.8 286.4
08/05 01:10 6.7 87 6.61 4.7 13 13 1031.5 0 15.6 25.4 35.9 93.6 81.3 277.4
08/05 01:00 6.8 87 6.66 4.8 11 13 1031.5 0 15.7 25.4 36.0 94.0 81.9 279.4
08/05 00:50 7.1 86 6.71 4.9 11 11 1031.4 0 15.8 25.4 36.1 94.2 82.2 280.7
08/05 00:40 7.5 85 6.81 5.1 11 11 1031.4 0 16.0 25.5 36.3 94.8 83.2 284.0
08/05 00:30 7.3 85 6.72 5 11 11 1031.5 0 15.8 25.4 36.1 94.1 82.2 280.5
08/05 00:20 7.6 85 6.85 5.2 11 11 1031.5 0 16.1 25.5 36.5 95.2 83.6 285.6
08/05 00:10 7.5 86 6.89 5.3 11 13 1031.5 0 16.2 25.6 36.7 95.7 84.3 287.9
08/05 00:00 7.5 86 6.89 5.3 13 15 1031.5 0 16.2 25.6 36.7 95.7 84.3 287.9
07/05 23:50 7.7 86 6.98 5.5 13 15 1031.5 0 16.4 25.7 36.9 96.5 85.3 291.5
07/05 23:40 7.6 85 6.85 5.2 13 13 1031.6 0 16.1 25.5 36.5 95.2 83.6 285.6
07/05 23:30 7.8 84 6.86 5.3 13 15 1031.6 0 16.1 25.5 36.4 95.0 83.5 285.4
07/05 23:20 8.1 83 6.91 5.4 13 13 1031.6 0 16.2 25.5 36.5 95.2 83.9 286.7
07/05 23:10 8.6 82 7.05 5.7 11 11 1031.6 0 16.5 25.6 36.8 96.2 85.2 291.5
07/05 23:00 8.7 81 7.01 5.6 13 13 1031.7 0 16.4 25.5 36.6 95.6 84.6 289.2
07/05 22:50 9.2 79 7.06 5.8 11 13 1031.7 0 16.5 25.4 36.6 95.5 84.7 289.8
07/05 22:40 9.5 78 7.1 5.9 13 13 1031.7 0 16.6 25.4 36.6 95.6 84.9 290.5
07/05 22:30 10 77 7.24 6.2 15 17 1031.8 0 16.8 25.5 37.0 96.5 86.3 295.3
07/05 22:20 9.7 80 7.38 6.4 17 17 1031.9 0 17.2 25.8 37.7 98.4 88.5 303.0
07/05 22:10 9.3 81 7.28 6.2 15 15 1031.9 0 17.0 25.7 37.5 97.8 87.6 299.8
07/05 22:00 9 81 7.14 5.9 11 15 1031.9 0 16.7 25.6 37.0 96.7 86.0 294.3
07/05 21:50 8.8 80 6.97 5.5 9 11 1031.8 0 16.3 25.4 36.4 95.1 84.0 287.0
07/05 21:40 8.9 80 7.01 5.6 15 17 1031.6 0 16.4 25.4 36.5 95.3 84.4 288.5
07/05 21:30 8.8 81 7.05 5.7 13 15 1031.6 0 16.5 25.5 36.7 95.9 85.0 290.7
07/05 21:20 9.3 79 7.1 5.9 13 15 1031.6 0 16.6 25.4 36.7 95.8 85.1 291.2
07/05 21:10 9.4 78 7.06 5.8 11 13 1031.7 0 16.5 25.3 36.5 95.3 84.5 289.0
07/05 21:00 9.8 78 7.24 6.2 11 13 1031.6 0 16.9 25.5 37.0 96.8 86.5 296.0
07/05 20:50 9.9 76 7.1 5.9 13 13 1031.5 0 16.5 25.3 36.4 95.1 84.5 289.0
07/05 20:40 9.8 75 6.96 5.6 13 13 1031.6 0 16.3 25.1 35.9 93.7 82.7 282.9
07/05 20:30 10.2 74 7.04 5.8 7 7 1031.6 0 16.4 25.1 36.0 94.1 83.4 285.1
07/05 20:20 10.5 74 7.18 6.1 7 7 1031.6 0 16.7 25.2 36.5 95.3 84.9 290.6
07/05 20:10 10.2 74 7.04 5.8 9 11 1031.6 0 16.4 25.1 36.0 94.1 83.4 285.1
07/05 20:00 10 73 6.86 5.4 13 13 1031.5 0 16.0 24.8 35.4 92.4 81.2 277.5
07/05 19:50 9.8 71 6.59 4.8 11 13 1031.5 0 15.5 24.5 34.4 89.8 77.9 265.7
07/05 19:40 9.8 70 6.5 4.6 13 13 1031.4 0 15.3 24.3 34.1 88.8 76.7 261.6
07/05 19:30 9.8 71 6.59 4.8 13 15 1031.3 0 15.5 24.5 34.4 89.7 77.8 265.7

Last Refresh: 08-May-2026 12:07:38

Bureau of Meteorology